Time;durP1;ratioP1;P1;durP2;ratioP2;P2;SDS_P1;SDS_P2;PMS_P1;PMS_P2;Temp;Humidity;BMP_temperature;BMP_pressure;BME280_temperature;BME280_humidity;BME280_pressure;Samples;Min_cycle;Max_cycle;Signal;HPM_P1;HPM_P2
2021/10/02 00:45:39;;;;;;;5.28;1.90;;;7.80;96.00;;;;;;4938256;29;20291;-61
2021/10/02 00:48:06;;;;;;;5.82;1.75;;;7.80;95.90;;;;;;4941346;28;20126;-61
2021/10/02 00:50:33;;;;;;;6.57;1.52;;;7.80;96.10;;;;;;4925331;29;20690;-62
2021/10/02 00:53:00;;;;;;;8.75;1.98;;;7.70;95.80;;;;;;4941281;28;20051;-61
2021/10/02 00:55:27;;;;;;;4.95;2.00;;;7.70;96.10;;;;;;4942641;29;20059;-61
2021/10/02 00:57:53;;;;;;;13.80;3.15;;;7.70;96.20;;;;;;4940521;28;20112;-61
2021/10/02 01:00:21;;;;;;;5.22;1.83;;;7.70;96.10;;;;;;4942251;29;20129;-62
2021/10/02 01:02:55;;;;;;;10.05;2.88;;;7.70;96.10;;;;;;4939470;29;20058;-61
2021/10/02 01:05:48;;;;;;;9.32;2.50;;;7.70;96.00;;;;;;4939583;29;20243;-62
2021/10/02 01:08:36;;;;;;;4.80;1.83;;;7.70;96.20;;;;;;4941446;28;20118;-62
2021/10/02 01:11:22;;;;;;;9.88;2.50;;;7.70;96.30;;;;;;4939987;29;20055;-62
2021/10/02 01:14:00;;;;;;;11.00;1.90;;;7.70;96.10;;;;;;4942142;28;20290;-62
2021/10/02 01:16:36;;;;;;;8.43;1.92;;;7.70;96.00;;;;;;4941296;29;20090;-61
2021/10/02 01:19:06;;;;;;;11.73;1.38;;;7.60;95.80;;;;;;4940986;29;20055;-62
2021/10/02 01:22:09;;;;;;;4.38;1.50;;;7.60;95.60;;;;;;4942729;28;20284;-61
2021/10/02 01:24:49;;;;;;;7.22;1.60;;;7.60;96.30;;;;;;4957500;28;20136;-61
2021/10/02 01:27:32;;;;;;;7.05;2.10;;;7.60;96.00;;;;;;4943171;29;20483;-61
2021/10/02 01:30:03;;;;;;;7.22;1.60;;;7.50;96.10;;;;;;4932363;29;20130;-61
2021/10/02 01:32:34;;;;;;;5.18;1.65;;;7.60;96.30;;;;;;4944934;29;20101;-61
2021/10/02 01:47:06;;;;;;;6.70;2.47;;;7.60;96.40;;;;;;4944926;29;20134;-61
2021/10/02 01:48:57;;;;;;;5.30;1.92;;;7.60;96.50;;;;;;4949390;28;20091;-62
2021/10/02 01:51:24;;;;;;;12.68;2.10;;;7.60;96.50;;;;;;4948416;29;20587;-61
2021/10/02 01:53:50;;;;;;;5.30;2.13;;;7.70;96.30;;;;;;4947226;29;20519;-62
2021/10/02 01:56:18;;;;;;;6.10;2.08;;;7.70;96.60;;;;;;4932150;29;20134;-61
2021/10/02 01:58:45;;;;;;;9.10;3.88;;;7.70;96.20;;;;;;4946993;29;20114;-61
2021/10/02 02:01:12;;;;;;;3.80;1.80;;;7.80;96.30;;;;;;4947350;29;20083;-62
2021/10/02 02:03:40;;;;;;;3.67;1.80;;;7.80;96.30;;;;;;4948347;28;20463;-62
2021/10/02 02:06:07;;;;;;;6.28;1.60;;;7.80;96.10;;;;;;4947912;28;20106;-61
2021/10/02 02:08:34;;;;;;;6.20;1.60;;;7.80;96.20;;;;;;4947409;29;20566;-61
2021/10/02 02:11:20;;;;;;;6.03;2.13;;;7.80;96.40;;;;;;4947602;28;20061;-61
2021/10/02 02:13:47;;;;;;;11.00;2.33;;;7.80;96.60;;;;;;4946738;29;20174;-61
2021/10/02 02:16:14;;;;;;;11.02;3.47;;;7.80;96.60;;;;;;4947630;29;20051;-61
2021/10/02 02:18:40;;;;;;;7.05;1.77;;;7.90;96.90;;;;;;4946839;29;20047;-61
2021/10/02 02:21:09;;;;;;;8.25;1.63;;;8.00;96.70;;;;;;4931298;29;20054;-62
2021/10/02 02:23:36;;;;;;;8.40;1.65;;;8.00;96.40;;;;;;4947730;29;20047;-62
2021/10/02 02:26:05;;;;;;;3.70;1.48;;;8.00;96.50;;;;;;4931205;29;20134;-61
2021/10/02 02:28:34;;;;;;;4.85;1.40;;;8.00;96.50;;;;;;4947570;28;20079;-61
2021/10/02 02:31:01;;;;;;;3.65;1.48;;;8.00;96.30;;;;;;4963373;28;20146;-61
2021/10/02 02:33:27;;;;;;;7.55;2.13;;;8.00;96.40;;;;;;4946487;29;20075;-61
2021/10/02 02:35:54;;;;;;;5.57;1.85;;;8.00;96.40;;;;;;4947338;29;20691;-61
2021/10/02 02:38:21;;;;;;;8.00;1.65;;;8.00;96.50;;;;;;4947337;29;20585;-62
2021/10/02 02:40:48;;;;;;;5.70;1.65;;;8.00;96.50;;;;;;4947839;29;20146;-61
2021/10/02 02:43:14;;;;;;;9.30;2.28;;;8.00;96.60;;;;;;4947100;28;20142;-62
2021/10/02 02:45:42;;;;;;;8.18;1.85;;;8.00;96.50;;;;;;4946919;29;20102;-61
2021/10/02 02:48:24;;;;;;;4.07;1.80;;;8.10;96.50;;;;;;4946386;28;20574;-61
2021/10/02 02:51:15;;;;;;;6.75;2.03;;;8.10;96.50;;;;;;4946117;28;20651;-62
2021/10/02 02:54:32;;;;;;;8.85;2.80;;;8.10;96.60;;;;;;4932261;29;20078;-61
2021/10/02 02:57:16;;;;;;;6.35;1.80;;;8.10;96.80;;;;;;4935580;29;20225;-61
2021/10/02 02:59:46;;;;;;;14.18;3.03;;;8.10;96.10;;;;;;4929891;29;20099;-61
2021/10/02 03:02:16;;;;;;;6.65;1.90;;;8.10;96.30;;;;;;4946026;29;20490;-61
2021/10/02 03:04:43;;;;;;;4.93;1.73;;;8.10;96.50;;;;;;4930555;29;20043;-61
2021/10/02 03:07:10;;;;;;;4.38;1.90;;;8.10;96.30;;;;;;4948361;28;20393;-62
2021/10/02 03:09:42;;;;;;;5.80;1.75;;;8.10;96.30;;;;;;4947200;28;20098;-61
2021/10/02 03:12:09;;;;;;;6.47;1.70;;;8.10;96.20;;;;;;4946724;29;20105;-62
2021/10/02 03:14:36;;;;;;;8.75;3.38;;;8.10;96.60;;;;;;4945369;29;20115;-61
2021/10/02 03:17:03;;;;;;;5.68;1.83;;;8.10;96.60;;;;;;4946264;28;20550;-62
2021/10/02 03:19:30;;;;;;;7.32;2.10;;;8.10;96.60;;;;;;4947394;28;20142;-62
2021/10/02 03:21:56;;;;;;;4.55;1.60;;;8.10;96.60;;;;;;4946181;29;20106;-62
2021/10/02 03:24:24;;;;;;;6.45;1.80;;;8.10;96.60;;;;;;4945748;29;20071;-61
2021/10/02 03:26:51;;;;;;;6.53;2.08;;;8.10;96.40;;;;;;4946869;29;20083;-62
2021/10/02 03:29:18;;;;;;;7.55;2.55;;;8.10;96.50;;;;;;4946317;28;20055;-61
2021/10/02 03:31:45;;;;;;;12.48;2.85;;;8.10;96.60;;;;;;4945134;29;20089;-61
2021/10/02 03:34:12;;;;;;;9.75;4.95;;;8.00;96.50;;;;;;4947578;28;20376;-62
2021/10/02 03:36:38;;;;;;;19.65;3.30;;;8.00;96.60;;;;;;4946499;29;20159;-62
2021/10/02 03:39:05;;;;;;;13.52;4.53;;;8.00;96.60;;;;;;4945837;29;20251;-62
2021/10/02 03:41:32;;;;;;;12.85;3.80;;;8.00;96.60;;;;;;4946148;29;20471;-62
2021/10/02 03:43:58;;;;;;;10.73;3.95;;;8.00;96.80;;;;;;4946460;28;20142;-62
2021/10/02 03:46:25;;;;;;;10.52;4.55;;;8.10;96.70;;;;;;4945945;29;20051;-62
2021/10/02 03:48:52;;;;;;;14.27;6.25;;;8.00;96.70;;;;;;4961615;28;20054;-61
2021/10/02 03:51:19;;;;;;;14.27;4.97;;;8.00;97.00;;;;;;4946947;28;20151;-61
2021/10/02 03:53:46;;;;;;;15.40;5.28;;;8.10;96.80;;;;;;4946480;29;20134;-62
2021/10/02 03:56:13;;;;;;;13.77;4.72;;;8.10;96.60;;;;;;4947470;28;20059;-62
2021/10/02 03:58:40;;;;;;;14.48;6.18;;;8.10;96.80;;;;;;4946723;28;20118;-62
2021/10/02 04:01:07;;;;;;;12.90;4.35;;;8.10;96.80;;;;;;4947034;28;20152;-62
2021/10/02 04:03:34;;;;;;;11.20;4.32;;;8.10;96.80;;;;;;4945561;28;20134;-61
2021/10/02 04:06:01;;;;;;;9.35;4.88;;;8.10;96.90;;;;;;4944104;29;20126;-62
2021/10/02 04:08:28;;;;;;;11.57;4.15;;;8.10;96.60;;;;;;4946428;28;20238;-61
2021/10/02 04:10:54;;;;;;;14.32;5.65;;;8.10;96.60;;;;;;4946759;29;20141;-61
2021/10/02 04:13:21;;;;;;;9.13;3.30;;;8.10;96.40;;;;;;4946082;28;20083;-61
2021/10/02 04:15:48;;;;;;;9.13;3.25;;;8.10;96.40;;;;;;4947249;28;20154;-62
2021/10/02 04:18:17;;;;;;;12.60;3.40;;;8.10;96.50;;;;;;4944888;29;20171;-61
2021/10/02 04:20:44;;;;;;;10.23;2.83;;;8.10;96.50;;;;;;4945129;29;20229;-63
2021/10/02 04:23:11;;;;;;;8.70;2.70;;;8.20;96.70;;;;;;4946024;28;20165;-62
2021/10/02 04:25:37;;;;;;;9.60;2.95;;;8.20;96.70;;;;;;4945883;29;20185;-62
2021/10/02 04:28:04;;;;;;;10.25;2.72;;;8.20;96.70;;;;;;4945373;29;20078;-61
2021/10/02 04:30:31;;;;;;;8.23;2.38;;;8.20;96.70;;;;;;4946159;28;20469;-62
2021/10/02 04:32:57;;;;;;;11.20;2.65;;;8.20;96.80;;;;;;4945829;28;20058;-62
2021/10/02 04:35:24;;;;;;;10.10;3.17;;;8.10;96.60;;;;;;4946551;28;20151;-61
2021/10/02 04:37:51;;;;;;;6.97;2.45;;;8.20;96.90;;;;;;4946167;28;20130;-62
2021/10/02 04:40:18;;;;;;;7.22;3.30;;;8.20;96.70;;;;;;4946512;28;20194;-62
2021/10/02 04:42:45;;;;;;;9.88;3.33;;;8.30;96.40;;;;;;4946123;28;20078;-62
2021/10/02 04:45:13;;;;;;;3.70;2.08;;;8.30;96.10;;;;;;4945213;28;20478;-62
2021/10/02 04:47:39;;;;;;;9.98;2.70;;;8.30;96.20;;;;;;4945642;28;20055;-62
2021/10/02 04:50:06;;;;;;;9.45;2.10;;;8.30;96.20;;;;;;4946457;29;20130;-62
2021/10/02 04:52:33;;;;;;;7.47;2.08;;;8.30;96.20;;;;;;4946088;28;20086;-62
2021/10/02 04:55:00;;;;;;;10.23;1.90;;;8.30;96.20;;;;;;4945839;29;20467;-62
2021/10/02 04:57:26;;;;;;;10.43;3.67;;;8.40;96.20;;;;;;4946215;28;20133;-62
2021/10/02 04:59:53;;;;;;;9.20;2.13;;;8.40;96.20;;;;;;4946958;29;20134;-62
2021/10/02 05:02:20;;;;;;;6.45;2.15;;;8.40;96.20;;;;;;4944639;28;20085;-61
2021/10/02 05:04:47;;;;;;;8.10;1.90;;;8.50;96.20;;;;;;4943510;28;20062;-62
2021/10/02 05:07:14;;;;;;;7.70;1.88;;;8.40;96.10;;;;;;4944571;28;20138;-62
2021/10/02 05:09:41;;;;;;;6.82;1.67;;;8.40;96.00;;;;;;4944324;28;20052;-62
2021/10/02 05:12:09;;;;;;;9.00;2.72;;;8.40;95.80;;;;;;4958643;28;20133;-62
2021/10/02 05:14:36;;;;;;;6.05;1.95;;;8.40;95.30;;;;;;4949294;28;20048;-61
2021/10/02 05:17:04;;;;;;;11.27;2.58;;;8.40;94.70;;;;;;4947050;29;20159;-62
2021/10/02 05:19:31;;;;;;;10.20;2.97;;;8.40;94.70;;;;;;4947689;28;20044;-61
2021/10/02 05:21:58;;;;;;;9.02;1.98;;;8.40;94.90;;;;;;4948188;28;20086;-61
2021/10/02 05:24:25;;;;;;;9.38;1.73;;;8.50;94.30;;;;;;4950389;28;20082;-62
2021/10/02 05:26:52;;;;;;;7.05;1.45;;;8.50;94.50;;;;;;4947978;29;20128;-62
2021/10/02 05:29:18;;;;;;;5.45;1.45;;;8.50;94.40;;;;;;4946242;29;20146;-62
2021/10/02 05:31:45;;;;;;;6.85;1.80;;;8.50;94.30;;;;;;4961909;28;20138;-62
2021/10/02 05:34:12;;;;;;;7.93;2.53;;;8.50;94.60;;;;;;4946845;28;20578;-62
2021/10/02 05:36:39;;;;;;;6.90;1.58;;;8.50;94.30;;;;;;4947350;28;20579;-61
2021/10/02 05:39:05;;;;;;;7.80;2.10;;;8.50;93.90;;;;;;4947058;29;20097;-62
2021/10/02 05:41:33;;;;;;;11.13;2.55;;;8.50;94.30;;;;;;4946440;29;20133;-61
2021/10/02 05:43:59;;;;;;;7.05;1.60;;;8.60;94.20;;;;;;4949332;29;20208;-61
2021/10/02 05:46:26;;;;;;;8.10;1.60;;;8.60;94.00;;;;;;4947509;28;20142;-62
2021/10/02 05:48:53;;;;;;;8.30;1.85;;;8.60;94.20;;;;;;4946960;28;20047;-62
2021/10/02 05:51:20;;;;;;;6.60;1.80;;;8.60;94.80;;;;;;4947176;29;20082;-62
2021/10/02 05:53:46;;;;;;;9.30;2.38;;;8.60;94.20;;;;;;4945417;29;20541;-62
2021/10/02 05:56:13;;;;;;;7.07;1.38;;;8.70;95.00;;;;;;4949230;28;20082;-62
2021/10/02 05:58:40;;;;;;;8.02;1.77;;;8.80;95.00;;;;;;4948496;28;20566;-62
2021/10/02 06:01:07;;;;;;;8.63;2.28;;;8.90;94.80;;;;;;4948630;28;20095;-61
2021/10/02 06:03:34;;;;;;;5.20;1.30;;;9.00;94.60;;;;;;4944818;29;20043;-61
2021/10/02 06:06:01;;;;;;;9.25;1.92;;;9.10;94.30;;;;;;4946669;28;20351;-61
2021/10/02 06:08:28;;;;;;;10.43;1.90;;;9.20;94.70;;;;;;4946677;29;20138;-61
2021/10/02 06:10:55;;;;;;;9.60;1.90;;;9.30;94.20;;;;;;4961800;28;20087;-61
2021/10/02 06:13:22;;;;;;;7.95;1.55;;;9.40;94.60;;;;;;4945312;28;20142;-61
2021/10/02 06:15:49;;;;;;;8.60;1.80;;;9.40;94.30;;;;;;4944673;29;20642;-61
2021/10/02 06:18:16;;;;;;;6.72;1.50;;;9.50;93.90;;;;;;4946190;29;20526;-62
2021/10/02 06:20:42;;;;;;;4.50;1.77;;;9.60;94.00;;;;;;4946724;28;20133;-61
2021/10/02 06:23:09;;;;;;;8.63;1.83;;;9.70;93.90;;;;;;4946586;28;20134;-62
2021/10/02 06:25:36;;;;;;;8.38;2.60;;;9.70;94.30;;;;;;4945617;28;20075;-61
2021/10/02 06:28:03;;;;;;;6.22;1.38;;;9.80;94.50;;;;;;4945379;28;20142;-61
2021/10/02 06:30:29;;;;;;;11.80;2.40;;;9.90;94.40;;;;;;4946147;29;20230;-61
2021/10/02 06:32:56;;;;;;;4.97;1.67;;;10.00;94.90;;;;;;4949140;28;20102;-61
2021/10/02 06:35:23;;;;;;;5.95;1.60;;;10.10;95.10;;;;;;4949955;28;20170;-61
2021/10/02 06:37:49;;;;;;;6.47;1.92;;;10.10;95.20;;;;;;4949249;29;20142;-61
2021/10/02 06:40:16;;;;;;;6.93;2.58;;;10.20;95.30;;;;;;4949654;28;20138;-61
2021/10/02 06:42:43;;;;;;;7.03;1.63;;;10.20;95.10;;;;;;4949076;28;20126;-61
2021/10/02 06:45:10;;;;;;;5.35;1.90;;;10.20;95.20;;;;;;4948945;28;20145;-61
2021/10/02 06:47:36;;;;;;;6.28;1.67;;;10.30;95.30;;;;;;4963280;28;20134;-61
2021/10/02 06:50:04;;;;;;;6.28;1.75;;;10.30;95.20;;;;;;4949426;29;20082;-61
2021/10/02 06:52:31;;;;;;;13.50;2.30;;;10.30;95.00;;;;;;4948570;28;20557;-61
2021/10/02 06:54:58;;;;;;;8.20;1.55;;;10.40;94.90;;;;;;4947865;28;20130;-61
2021/10/02 06:57:25;;;;;;;9.73;2.47;;;10.40;94.80;;;;;;4946111;29;20051;-61
2021/10/02 06:59:51;;;;;;;4.28;1.60;;;10.40;94.50;;;;;;4927665;29;20122;-61
2021/10/02 07:02:18;;;;;;;9.30;2.42;;;10.40;94.30;;;;;;4943446;29;20154;-61
2021/10/02 07:04:49;;;;;;;7.03;2.40;;;10.50;94.30;;;;;;4945622;28;20043;-61
2021/10/02 07:07:16;;;;;;;9.27;1.92;;;10.50;93.90;;;;;;4946087;28;20055;-61
2021/10/02 07:09:43;;;;;;;9.30;1.95;;;10.60;94.20;;;;;;4947962;28;20059;-61
2021/10/02 07:12:10;;;;;;;4.25;1.40;;;10.60;94.10;;;;;;4946216;28;20043;-61
2021/10/02 07:14:37;;;;;;;5.85;1.55;;;10.60;93.50;;;;;;4944401;28;20071;-61
2021/10/02 07:17:03;;;;;;;6.45;1.58;;;10.70;93.90;;;;;;4944962;28;20755;-61
2021/10/02 07:19:30;;;;;;;8.68;1.70;;;10.70;93.20;;;;;;4946135;28;20075;-61
2021/10/02 07:21:57;;;;;;;6.80;2.60;;;10.70;94.10;;;;;;4945109;29;20074;-61
2021/10/02 07:24:24;;;;;;;11.27;1.90;;;10.70;93.80;;;;;;4944116;29;20148;-61
2021/10/02 07:26:51;;;;;;;7.65;1.83;;;10.80;93.90;;;;;;4943894;28;20141;-62
2021/10/02 07:29:17;;;;;;;5.68;1.83;;;10.90;93.70;;;;;;4944450;28;20570;-62
2021/10/02 07:31:48;;;;;;;6.45;2.20;;;10.90;93.90;;;;;;4942920;29;20502;-61
2021/10/02 07:34:15;;;;;;;6.35;2.00;;;11.00;93.40;;;;;;4945195;28;20059;-61
2021/10/02 07:36:42;;;;;;;8.40;1.60;;;11.10;93.30;;;;;;4943242;28;20178;-61
2021/10/02 07:39:08;;;;;;;7.03;2.53;;;11.10;93.30;;;;;;4940589;28;20142;-61
2021/10/02 07:41:39;;;;;;;8.85;1.63;;;11.10;93.60;;;;;;4941943;29;20086;-62
2021/10/02 07:44:06;;;;;;;6.53;1.65;;;11.20;93.10;;;;;;4938428;29;20051;-61
2021/10/02 07:46:33;;;;;;;7.93;1.70;;;11.20;93.20;;;;;;4940881;28;20082;-61
2021/10/02 07:49:00;;;;;;;3.88;1.60;;;11.30;93.10;;;;;;4940589;28;20086;-61
2021/10/02 07:51:27;;;;;;;7.25;2.10;;;11.30;92.90;;;;;;4943235;28;20173;-61
2021/10/02 07:53:54;;;;;;;5.90;1.60;;;11.40;93.00;;;;;;4944334;28;20194;-62
2021/10/02 07:56:21;;;;;;;4.20;1.80;;;11.50;92.80;;;;;;4939350;29;20126;-62
2021/10/02 07:58:48;;;;;;;4.38;1.52;;;11.70;92.90;;;;;;4941673;29;20142;-63
2021/10/02 08:01:15;;;;;;;8.13;2.33;;;11.70;92.80;;;;;;4939477;29;20054;-61
2021/10/02 08:03:42;;;;;;;4.95;1.92;;;11.80;92.20;;;;;;4956725;28;20070;-62
2021/10/02 08:06:10;;;;;;;11.23;2.40;;;11.90;92.20;;;;;;4942512;28;20503;-61
2021/10/02 08:08:37;;;;;;;6.75;2.08;;;12.00;91.80;;;;;;4941555;28;20062;-61
2021/10/02 08:11:05;;;;;;;6.30;1.52;;;12.20;91.90;;;;;;4941861;28;20048;-62
2021/10/02 08:13:33;;;;;;;5.35;1.60;;;12.30;91.50;;;;;;4955004;28;20570;-61
2021/10/02 08:16:00;;;;;;;7.90;2.20;;;12.40;91.20;;;;;;4942416;28;20146;-62
2021/10/02 08:18:30;;;;;;;5.03;1.52;;;12.40;90.80;;;;;;4939822;28;20050;-62
2021/10/02 08:20:58;;;;;;;6.28;1.63;;;12.50;90.40;;;;;;4941126;28;20051;-62
2021/10/02 08:23:25;;;;;;;6.60;1.60;;;12.50;90.80;;;;;;4941918;29;20051;-62
2021/10/02 08:25:54;;;;;;;5.07;2.28;;;12.60;90.90;;;;;;4941427;28;20475;-61
2021/10/02 08:28:21;;;;;;;5.05;1.50;;;12.70;90.50;;;;;;4941236;28;20146;-61
2021/10/02 08:30:49;;;;;;;7.22;2.00;;;12.70;90.20;;;;;;4932698;28;20388;-61
2021/10/02 08:33:16;;;;;;;8.57;1.63;;;12.80;90.00;;;;;;4970164;28;20326;-62
2021/10/02 08:35:43;;;;;;;5.95;1.42;;;12.90;90.30;;;;;;4940459;28;20143;-61
2021/10/02 08:38:10;;;;;;;7.68;1.77;;;12.90;90.40;;;;;;4941518;28;20150;-61
2021/10/02 08:40:38;;;;;;;6.05;1.20;;;12.90;89.90;;;;;;4941199;28;20247;-61
2021/10/02 08:43:10;;;;;;;9.85;2.60;;;12.90;90.40;;;;;;4939480;29;20475;-61
2021/10/02 08:45:38;;;;;;;10.93;2.53;;;13.00;90.50;;;;;;4940058;29;20151;-61
2021/10/02 08:48:04;;;;;;;6.82;1.75;;;13.00;90.20;;;;;;4937990;28;20062;-61
2021/10/02 08:50:31;;;;;;;4.75;2.22;;;13.00;90.60;;;;;;4941153;28;20110;-61
2021/10/02 08:52:58;;;;;;;8.85;2.10;;;13.00;90.50;;;;;;4939520;28;20063;-61
2021/10/02 08:55:25;;;;;;;5.68;1.70;;;13.00;90.50;;;;;;4938204;29;20352;-61
2021/10/02 08:57:52;;;;;;;9.43;1.85;;;13.10;90.60;;;;;;4940168;29;20477;-61
2021/10/02 09:00:23;;;;;;;6.15;2.10;;;13.10;89.60;;;;;;4940053;29;20138;-61
2021/10/02 09:02:50;;;;;;;7.20;1.70;;;13.10;90.40;;;;;;4941009;28;20638;-61
2021/10/02 09:05:18;;;;;;;7.82;1.73;;;13.10;90.80;;;;;;4939840;29;20051;-61
2021/10/02 09:07:50;;;;;;;4.22;1.42;;;13.10;90.70;;;;;;4940785;28;20151;-61
2021/10/02 09:10:17;;;;;;;9.02;1.70;;;13.10;90.50;;;;;;4924265;29;20141;-61
2021/10/02 09:12:44;;;;;;;7.85;2.00;;;13.10;90.90;;;;;;4941635;28;20114;-61
2021/10/02 09:15:13;;;;;;;9.15;2.00;;;13.10;91.00;;;;;;4939956;28;20258;-61
2021/10/02 09:17:40;;;;;;;9.60;2.30;;;13.20;91.20;;;;;;4941429;28;20114;-61
2021/10/02 09:20:07;;;;;;;9.18;2.88;;;13.10;91.20;;;;;;4940337;29;20126;-61
2021/10/02 09:22:34;;;;;;;7.55;1.95;;;13.20;91.40;;;;;;4941740;28;20065;-61
2021/10/02 09:25:03;;;;;;;10.60;2.45;;;13.20;91.50;;;;;;4939261;29;20713;-61
2021/10/02 09:27:31;;;;;;;7.35;3.03;;;13.20;91.40;;;;;;4941317;28;20146;-61
2021/10/02 09:30:00;;;;;;;12.15;3.20;;;13.20;91.80;;;;;;4940221;28;20142;-61
2021/10/02 09:32:31;;;;;;;10.85;2.45;;;13.30;91.60;;;;;;4936381;29;20519;-61
2021/10/02 09:34:59;;;;;;;8.30;2.35;;;13.30;91.70;;;;;;4939538;29;20179;-61
2021/10/02 09:37:33;;;;;;;7.25;2.25;;;13.40;91.30;;;;;;4939630;29;20138;-61
2021/10/02 09:40:11;;;;;;;7.88;2.13;;;13.40;91.50;;;;;;4941059;29;20507;-61
2021/10/02 09:42:39;;;;;;;5.95;1.92;;;13.50;91.40;;;;;;4941580;28;20055;-61
2021/10/02 09:45:11;;;;;;;10.45;2.42;;;13.60;91.30;;;;;;4939040;29;20162;-61
2021/10/02 09:47:39;;;;;;;6.40;1.88;;;13.70;91.10;;;;;;4940203;29;20141;-61
2021/10/02 09:50:10;;;;;;;12.38;3.20;;;13.70;91.10;;;;;;4939466;29;20063;-61
2021/10/02 09:52:42;;;;;;;6.15;2.30;;;13.70;91.40;;;;;;4941305;28;20456;-61
2021/10/02 09:55:30;;;;;;;8.48;2.47;;;13.70;91.20;;;;;;4937863;29;20677;-61
2021/10/02 09:58:01;;;;;;;5.57;2.20;;;13.70;91.60;;;;;;4939517;28;20246;-61
2021/10/02 10:00:30;;;;;;;11.85;2.90;;;13.70;91.30;;;;;;4940393;28;20130;-62
2021/10/02 10:02:57;;;;;;;9.00;2.13;;;13.70;91.30;;;;;;4943316;28;20398;-62
2021/10/02 10:05:36;;;;;;;10.07;2.13;;;13.70;91.60;;;;;;4942000;29;20479;-61
2021/10/02 10:08:05;;;;;;;12.55;2.67;;;13.80;91.70;;;;;;4933206;29;20429;-61
2021/10/02 10:10:36;;;;;;;10.63;3.00;;;13.80;91.60;;;;;;4942829;28;20374;-61
2021/10/02 10:13:05;;;;;;;9.70;2.70;;;13.80;91.70;;;;;;4958405;28;20562;-61
2021/10/02 10:15:34;;;;;;;10.75;2.53;;;13.80;92.20;;;;;;4943171;29;20263;-61
2021/10/02 10:18:01;;;;;;;7.55;2.45;;;13.80;91.90;;;;;;4942124;29;20094;-62
2021/10/02 10:20:33;;;;;;;10.73;2.80;;;13.80;92.00;;;;;;4943349;29;20142;-61
2021/10/02 10:23:00;;;;;;;8.40;2.15;;;13.90;92.20;;;;;;4944008;28;20130;-61
2021/10/02 10:25:27;;;;;;;9.70;2.97;;;13.90;92.40;;;;;;4942759;29;20095;-61
2021/10/02 10:27:57;;;;;;;13.75;2.22;;;13.90;92.40;;;;;;4944133;28;20166;-61
2021/10/02 10:30:24;;;;;;;9.77;2.55;;;13.90;92.70;;;;;;4942519;29;20170;-61
2021/10/02 10:33:10;;;;;;;7.65;3.20;;;13.90;93.30;;;;;;4942615;29;20134;-61
2021/10/02 10:35:42;;;;;;;12.05;2.75;;;13.90;93.50;;;;;;4944345;28;20569;-61
2021/10/02 10:38:11;;;;;;;13.15;2.97;;;13.90;93.70;;;;;;4944146;28;20475;-61
2021/10/02 10:40:38;;;;;;;12.52;3.67;;;13.90;93.80;;;;;;4942607;29;20577;-61
2021/10/02 10:43:05;;;;;;;12.23;3.00;;;13.90;94.50;;;;;;4942299;29;20178;-61
2021/10/02 10:45:31;;;;;;;10.32;3.03;;;13.80;94.90;;;;;;4958443;28;20051;-61
2021/10/02 10:47:58;;;;;;;11.05;2.72;;;13.70;95.00;;;;;;4942733;29;20086;-61
2021/10/02 10:50:25;;;;;;;10.77;2.72;;;13.70;95.00;;;;;;4942144;29;20055;-62
2021/10/02 10:52:52;;;;;;;10.88;3.80;;;13.70;95.50;;;;;;4942676;29;20162;-61
2021/10/02 10:55:21;;;;;;;14.50;4.03;;;13.60;95.60;;;;;;4940484;29;20237;-62
2021/10/02 10:57:52;;;;;;;6.68;2.42;;;13.60;95.80;;;;;;4943073;29;20082;-62
2021/10/02 11:00:38;;;;;;;10.07;2.58;;;13.60;96.20;;;;;;4943266;28;20142;-62
2021/10/02 11:03:10;;;;;;;8.77;2.22;;;13.60;96.60;;;;;;4943394;28;20083;-62
2021/10/02 11:05:37;;;;;;;6.78;1.90;;;13.60;96.30;;;;;;4944413;28;20054;-63
2021/10/02 11:08:16;;;;;;;9.82;2.05;;;13.50;96.60;;;;;;4958437;28;20102;-63
2021/10/02 11:10:43;;;;;;;6.45;2.08;;;13.50;96.60;;;;;;4941970;28;20471;-62
2021/10/02 11:13:13;;;;;;;7.72;2.22;;;13.50;96.70;;;;;;4941983;28;20147;-62
2021/10/02 11:15:40;;;;;;;6.47;1.80;;;13.50;96.90;;;;;;4943680;28;20142;-63
2021/10/02 11:18:39;;;;;;;3.42;1.42;;;13.50;96.80;;;;;;4941550;28;20494;-63
2021/10/02 11:21:06;;;;;;;5.18;1.55;;;13.60;97.50;;;;;;4943510;28;20246;-63
2021/10/02 11:23:36;;;;;;;2.13;1.25;;;13.60;96.90;;;;;;4942335;28;20133;-62
2021/10/02 11:26:12;;;;;;;3.22;1.30;;;13.60;97.20;;;;;;4943024;28;20047;-63
2021/10/02 11:28:39;;;;;;;4.35;1.83;;;13.60;97.30;;;;;;4942322;28;20059;-63
2021/10/02 11:31:15;;;;;;;7.40;1.17;;;13.60;97.30;;;;;;4958011;28;20093;-63
2021/10/02 11:33:43;;;;;;;7.13;1.45;;;13.50;97.40;;;;;;4943344;28;20051;-64
2021/10/02 11:36:28;;;;;;;4.82;1.20;;;13.60;97.50;;;;;;4943218;28;20055;-64
2021/10/02 11:39:15;;;;;;;2.33;1.17;;;13.50;97.90;;;;;;4942719;28;20090;-64
2021/10/02 11:41:50;;;;;;;3.45;1.45;;;13.50;98.10;;;;;;4943383;28;20051;-64
2021/10/02 11:44:35;;;;;;;4.18;1.50;;;13.50;97.90;;;;;;4942406;28;20087;-64
2021/10/02 11:47:36;;;;;;;3.30;1.55;;;13.60;98.10;;;;;;4942656;28;20424;-65
2021/10/02 11:50:12;;;;;;;5.22;1.63;;;13.70;98.20;;;;;;4942680;28;20051;-65
2021/10/02 11:52:45;;;;;;;6.47;1.80;;;13.70;98.30;;;;;;4942422;28;20071;-65
2021/10/02 11:55:33;;;;;;;5.35;1.45;;;13.70;98.10;;;;;;4939996;28;20478;-66
2021/10/02 11:58:13;;;;;;;4.05;1.20;;;13.70;98.40;;;;;;4942062;28;20133;-65
2021/10/02 12:00:55;;;;;;;7.45;1.90;;;13.70;98.70;;;;;;4943082;28;20078;-65
2021/10/02 12:03:29;;;;;;;4.40;1.67;;;13.70;98.70;;;;;;4939718;29;20133;-66
2021/10/02 12:06:00;;;;;;;4.75;1.33;;;13.80;98.30;;;;;;4942400;28;20545;-65
2021/10/02 12:08:27;;;;;;;4.65;1.73;;;13.90;98.40;;;;;;4939681;28;20052;-65
2021/10/02 12:11:04;;;;;;;2.58;1.10;;;13.90;98.20;;;;;;4941176;29;20375;-64
2021/10/02 12:13:34;;;;;;;2.80;1.40;;;14.00;98.70;;;;;;4939189;29;20055;-64
2021/10/02 12:16:03;;;;;;;4.28;1.15;;;14.00;98.70;;;;;;4942473;28;20454;-64
2021/10/02 12:18:52;;;;;;;3.70;1.13;;;14.00;98.50;;;;;;4941544;28;20525;-64
2021/10/02 12:21:25;;;;;;;5.00;1.40;;;14.10;98.60;;;;;;4942479;28;20058;-64
2021/10/02 12:24:27;;;;;;;5.07;1.50;;;14.10;98.60;;;;;;4940756;28;20830;-64
2021/10/02 12:27:02;;;;;;;6.28;2.70;;;14.20;98.80;;;;;;4957679;28;20910;-65
2021/10/02 12:29:30;;;;;;;5.68;1.35;;;14.10;98.50;;;;;;4943534;28;20047;-64
2021/10/02 12:32:05;;;;;;;6.70;1.50;;;14.20;98.50;;;;;;4940917;28;20101;-64
2021/10/02 12:34:36;;;;;;;6.60;2.65;;;14.20;98.60;;;;;;4941025;29;20086;-65
2021/10/02 12:37:06;;;;;;;3.75;1.10;;;14.20;98.50;;;;;;4942535;28;20129;-64
2021/10/02 12:39:36;;;;;;;3.20;1.23;;;14.20;98.40;;;;;;4956582;28;20086;-63
2021/10/02 12:42:04;;;;;;;5.60;1.45;;;14.20;98.40;;;;;;4941105;29;20150;-64
2021/10/02 12:44:32;;;;;;;3.90;1.58;;;14.20;98.30;;;;;;4941102;28;20069;-64
2021/10/02 12:47:00;;;;;;;3.33;1.27;;;14.20;98.50;;;;;;4940831;29;20558;-64
2021/10/02 12:49:27;;;;;;;8.57;1.23;;;14.20;98.60;;;;;;4941854;28;20582;-65
2021/10/02 12:51:54;;;;;;;4.15;1.58;;;14.20;98.40;;;;;;4941067;29;20138;-64
2021/10/02 12:54:23;;;;;;;4.25;1.23;;;14.20;98.30;;;;;;4939952;29;20059;-65
2021/10/02 12:57:10;;;;;;;5.90;1.55;;;14.20;98.70;;;;;;4939203;29;20138;-65
2021/10/02 12:59:45;;;;;;;3.80;1.40;;;14.30;98.70;;;;;;4941802;28;20177;-64
2021/10/02 13:02:12;;;;;;;7.70;1.30;;;14.30;98.60;;;;;;4941558;28;20133;-64
2021/10/02 13:04:39;;;;;;;3.78;1.60;;;14.30;98.80;;;;;;4941243;28;20055;-64
2021/10/02 13:07:06;;;;;;;3.90;1.52;;;14.30;98.70;;;;;;4941839;28;20131;-65
2021/10/02 13:10:03;;;;;;;1.67;1.08;;;14.40;98.90;;;;;;4941338;28;20390;-64
2021/10/02 13:12:43;;;;;;;5.10;1.73;;;14.40;99.10;;;;;;4941853;28;20496;-64
2021/10/02 13:15:24;;;;;;;2.35;1.05;;;14.40;98.90;;;;;;4939291;29;20562;-64
2021/10/02 13:18:04;;;;;;;2.28;0.80;;;14.40;98.90;;;;;;4941152;28;20589;-63
2021/10/02 13:20:41;;;;;;;5.38;1.23;;;14.40;98.90;;;;;;4940813;29;20110;-65
2021/10/02 13:23:17;;;;;;;1.90;0.70;;;14.40;98.90;;;;;;4941624;28;20062;-64
2021/10/02 13:25:55;;;;;;;6.22;1.05;;;14.40;98.90;;;;;;4939333;29;20075;-63
2021/10/02 13:28:45;;;;;;;6.18;0.73;;;14.30;98.90;;;;;;4938938;29;20146;-64
2021/10/02 13:31:15;;;;;;;2.20;0.80;;;14.40;99.30;;;;;;4941151;28;20055;-64
2021/10/02 13:33:46;;;;;;;1.75;0.80;;;14.40;99.20;;;;;;4941177;28;20503;-62
2021/10/02 13:36:26;;;;;;;1.80;0.73;;;14.40;99.30;;;;;;4944239;28;20059;-62
2021/10/02 13:38:53;;;;;;;2.92;0.80;;;14.40;99.40;;;;;;4943413;29;20162;-64
2021/10/02 13:41:20;;;;;;;1.92;0.60;;;14.40;99.10;;;;;;4944076;29;20717;-64
2021/10/02 13:43:55;;;;;;;3.75;0.82;;;14.30;99.30;;;;;;4943629;28;20488;-61
2021/10/02 13:46:38;;;;;;;1.63;0.52;;;14.20;99.60;;;;;;4945567;28;20110;-64
2021/10/02 13:49:11;;;;;;;2.22;0.93;;;14.20;99.40;;;;;;4943279;29;20056;-64
2021/10/02 13:51:37;;;;;;;3.97;1.00;;;14.30;99.50;;;;;;4945125;28;20477;-63
2021/10/02 13:54:04;;;;;;;2.40;0.82;;;14.20;99.40;;;;;;4944647;28;20086;-63
2021/10/02 13:56:38;;;;;;;3.95;1.00;;;14.30;99.60;;;;;;4943467;28;20130;-64
2021/10/02 13:59:05;;;;;;;2.55;0.85;;;14.30;99.60;;;;;;4942499;29;20142;-64
2021/10/02 14:01:32;;;;;;;1.75;1.17;;;14.30;99.40;;;;;;4943090;29;20581;-64